createdAt,value
2022-11-20T00:04:27.381Z,12.00
2022-11-20T00:09:29.309Z,9.13
2022-11-20T00:14:31.182Z,9.90
2022-11-20T00:19:33.055Z,9.93
2022-11-20T00:24:38.962Z,10.45
2022-11-20T00:29:44.692Z,11.98
2022-11-20T00:34:46.636Z,11.55
2022-11-20T00:39:48.564Z,10.65
2022-11-20T00:44:50.493Z,10.48
2022-11-20T00:49:52.362Z,11.57
2022-11-20T00:54:54.196Z,10.32
2022-11-20T00:59:56.670Z,10.88
2022-11-20T01:04:58.575Z,10.48
2022-11-20T01:10:00.447Z,10.40
2022-11-20T01:15:02.310Z,10.77
2022-11-20T01:20:04.591Z,9.63
2022-11-20T01:25:06.852Z,11.23
2022-11-20T01:30:09.301Z,10.15
2022-11-20T01:35:11.317Z,8.63
2022-11-20T01:40:13.298Z,11.05
2022-11-20T01:46:03.341Z,10.95
2022-11-20T01:51:06.807Z,10.85
2022-11-20T01:56:12.904Z,11.00
2022-11-20T02:01:15.297Z,11.10
2022-11-20T02:06:20.021Z,10.70
2022-11-20T02:11:22.284Z,10.75
2022-11-20T02:16:31.269Z,10.18
2022-11-20T02:21:36.059Z,10.57
2022-11-20T02:27:03.708Z,12.45
2022-11-20T02:32:05.705Z,11.80
2022-11-20T02:37:07.632Z,11.18
2022-11-20T02:42:09.512Z,10.13
2022-11-20T02:47:11.474Z,9.48
2022-11-20T02:52:13.373Z,9.45
2022-11-20T02:57:15.419Z,8.25
2022-11-20T03:02:17.431Z,8.38
2022-11-20T03:07:19.439Z,10.45
2022-11-20T03:12:21.578Z,10.20
2022-11-20T03:17:23.488Z,9.95
2022-11-20T03:22:25.366Z,9.95
2022-11-20T03:27:27.333Z,10.25
2022-11-20T03:32:29.209Z,8.98
2022-11-20T03:37:31.089Z,9.82
2022-11-20T03:42:48.138Z,10.40
2022-11-20T03:47:50.170Z,10.47
2022-11-20T03:52:52.103Z,9.60
2022-11-20T03:57:53.962Z,9.90
2022-11-20T04:02:59.923Z,10.13
2022-11-20T04:08:02.320Z,11.38
2022-11-20T04:13:04.392Z,9.48
2022-11-20T04:18:06.344Z,10.77
2022-11-20T04:23:08.238Z,10.20
2022-11-20T04:28:10.438Z,11.18
2022-11-20T04:33:12.523Z,10.65
2022-11-20T04:38:14.450Z,10.70
2022-11-20T04:43:16.351Z,10.45
2022-11-20T04:48:18.239Z,11.23
2022-11-20T04:53:20.593Z,10.68
2022-11-20T04:58:23.432Z,13.52
2022-11-20T05:03:25.320Z,11.88
2022-11-20T05:08:27.265Z,11.25
2022-11-20T05:13:29.727Z,11.25
2022-11-20T05:18:31.776Z,10.68
2022-11-20T05:23:34.812Z,12.38
2022-11-20T05:28:36.769Z,10.75
2022-11-20T05:33:41.675Z,11.25
2022-11-20T05:38:44.367Z,12.35
2022-11-20T05:43:48.334Z,11.30
2022-11-20T05:48:50.482Z,11.93
2022-11-20T05:53:52.457Z,12.20
2022-11-20T05:58:54.405Z,11.98
2022-11-20T06:03:56.321Z,11.65
2022-11-20T06:08:59.924Z,12.90
2022-11-20T06:14:01.843Z,10.82
2022-11-20T06:19:03.743Z,12.38
2022-11-20T06:24:06.013Z,10.80
2022-11-20T06:29:08.143Z,10.07
2022-11-20T06:34:10.183Z,10.82
2022-11-20T06:39:12.209Z,10.45
2022-11-20T06:44:14.097Z,10.40
2022-11-20T06:49:16.015Z,10.02
2022-11-20T06:54:17.890Z,10.05
2022-11-20T06:59:20.032Z,10.13
2022-11-20T07:04:22.344Z,11.73
2022-11-20T07:09:24.361Z,12.88
2022-11-20T07:14:26.549Z,10.85
2022-11-20T07:19:28.467Z,13.10
2022-11-20T07:24:30.400Z,11.77
2022-11-20T07:29:32.408Z,13.82
2022-11-20T07:34:34.275Z,10.95
2022-11-20T07:39:36.276Z,11.57
2022-11-20T07:44:38.268Z,12.10
2022-11-20T07:49:40.297Z,10.90
2022-11-20T07:54:42.170Z,11.70
2022-11-20T07:59:44.057Z,12.48
2022-11-20T08:04:46.084Z,12.15
2022-11-20T08:09:47.962Z,12.10
2022-11-20T08:14:49.830Z,11.88
2022-11-20T08:19:51.764Z,12.52
2022-11-20T08:24:53.783Z,12.15
2022-11-20T08:29:55.714Z,12.63
2022-11-20T08:34:57.805Z,13.07
2022-11-20T08:39:59.786Z,13.85
2022-11-20T08:45:01.722Z,13.45
2022-11-20T08:50:03.948Z,12.73
2022-11-20T08:55:07.704Z,14.77
2022-11-20T09:00:11.915Z,14.63
2022-11-20T09:05:14.282Z,14.45
2022-11-20T09:10:24.136Z,15.18
2022-11-20T09:15:27.233Z,14.95
2022-11-20T09:20:30.449Z,15.38
2022-11-20T09:25:32.347Z,15.45
2022-11-20T09:30:34.711Z,13.70
2022-11-20T09:35:36.661Z,14.82
2022-11-20T09:40:50.427Z,14.82
2022-11-20T09:46:07.310Z,14.50
2022-11-20T09:51:29.779Z,15.40
2022-11-20T09:56:32.781Z,15.30
2022-11-20T10:01:37.669Z,14.35
2022-11-20T10:06:43.195Z,16.80
2022-11-20T10:12:06.991Z,16.90
2022-11-20T10:17:27.392Z,16.98
2022-11-20T10:22:54.126Z,18.67
2022-11-20T10:28:18.156Z,15.90
2022-11-20T10:33:29.033Z,18.77
2022-11-20T10:38:55.520Z,16.65
2022-11-20T10:44:13.659Z,17.67
2022-11-20T10:49:18.655Z,18.45
2022-11-20T10:54:28.117Z,19.70
2022-11-20T10:59:36.164Z,18.85
2022-11-20T11:04:44.858Z,16.80
2022-11-20T11:09:57.583Z,17.85
2022-11-20T11:14:59.510Z,17.67
2022-11-20T11:20:18.140Z,19.65
2022-11-20T11:25:39.272Z,18.42
2022-11-20T11:30:45.619Z,19.80
2022-11-20T11:35:51.851Z,18.45
2022-11-20T11:40:55.832Z,18.63
2022-11-20T11:45:58.427Z,16.40
2022-11-20T11:51:00.328Z,17.50
2022-11-20T11:56:10.843Z,18.65
2022-11-20T12:01:24.936Z,19.55
2022-11-20T12:06:29.798Z,17.95
2022-11-20T12:12:07.047Z,19.13
2022-11-20T12:17:12.831Z,21.02
2022-11-20T12:22:37.788Z,19.20
2022-11-20T12:28:14.712Z,19.50
2022-11-20T12:33:57.474Z,21.13
2022-11-20T12:39:31.732Z,22.83
2022-11-20T12:50:17.283Z,22.55
2022-11-20T12:55:31.230Z,22.27
2022-11-20T13:00:35.559Z,22.95
2022-11-20T13:06:01.480Z,22.55
2022-11-20T13:11:18.436Z,22.02
2022-11-20T13:16:48.287Z,22.33
2022-11-20T13:21:51.501Z,21.35
2022-11-20T13:27:10.047Z,22.15
2022-11-20T13:32:19.902Z,22.77
2022-11-20T13:37:48.261Z,22.52
2022-11-20T13:43:02.924Z,21.13
2022-11-20T13:48:26.131Z,22.45
2022-11-20T13:53:49.489Z,20.98
2022-11-20T13:59:04.912Z,24.23
2022-11-20T14:04:12.129Z,20.45
2022-11-20T14:09:29.363Z,20.42
2022-11-20T14:14:34.198Z,20.75
2022-11-20T14:19:38.219Z,19.92
2022-11-20T14:24:40.172Z,22.33
2022-11-20T14:29:43.872Z,22.00
2022-11-20T14:34:48.943Z,20.80
2022-11-20T14:39:56.364Z,25.13
2022-11-20T14:45:00.273Z,23.10
2022-11-20T14:50:07.368Z,22.52
2022-11-20T14:55:15.017Z,22.98
2022-11-20T15:00:16.886Z,23.77
2022-11-20T15:05:23.083Z,23.33
2022-11-20T15:10:28.656Z,25.52
2022-11-20T15:15:36.100Z,24.50
2022-11-20T15:20:38.160Z,23.05
2022-11-20T15:25:41.409Z,22.88
2022-11-20T15:30:43.337Z,25.77
2022-11-20T15:35:45.604Z,24.45
2022-11-20T15:40:47.604Z,25.42
2022-11-20T15:45:56.494Z,24.17
2022-11-20T15:51:11.858Z,28.15
2022-11-20T15:56:14.767Z,28.23
2022-11-20T16:01:19.782Z,23.40
2022-11-20T16:06:21.837Z,26.98
2022-11-20T16:11:23.848Z,30.30
2022-11-20T16:16:33.330Z,26.15
2022-11-20T16:21:35.837Z,23.05
2022-11-20T16:26:38.148Z,23.65
2022-11-20T16:31:40.244Z,23.20
2022-11-20T16:36:43.510Z,23.48
2022-11-20T16:41:45.454Z,21.30
2022-11-20T16:46:47.471Z,21.08
2022-11-20T16:51:49.432Z,23.90
2022-11-20T16:56:53.439Z,21.60
2022-11-20T17:01:55.496Z,21.58
2022-11-20T17:06:57.869Z,21.83
2022-11-20T17:12:00.098Z,22.90
2022-11-20T17:17:02.040Z,24.92
2022-11-20T17:22:04.066Z,25.90
2022-11-20T17:27:06.140Z,25.33
2022-11-20T17:32:08.041Z,22.88
2022-11-20T17:37:10.158Z,24.52
2022-11-20T17:42:27.353Z,26.95
2022-11-20T17:47:29.350Z,22.42
2022-11-20T17:52:31.445Z,20.23
2022-11-20T17:57:52.060Z,20.55
2022-11-20T18:02:56.906Z,22.27
2022-11-20T18:07:58.808Z,22.85
2022-11-20T18:13:01.274Z,20.98
2022-11-20T18:18:03.220Z,20.25
2022-11-20T18:23:05.159Z,22.63
2022-11-20T18:28:07.151Z,22.52
2022-11-20T18:33:09.115Z,20.77
2022-11-20T18:38:11.001Z,20.65
2022-11-20T18:43:31.522Z,23.80
2022-11-20T18:48:33.947Z,21.25
2022-11-20T18:53:36.199Z,21.05
2022-11-20T18:58:38.295Z,22.83
2022-11-20T19:03:40.230Z,21.83
2022-11-20T19:08:42.454Z,21.55
2022-11-20T19:13:45.055Z,21.38
2022-11-20T19:18:48.492Z,21.48
2022-11-20T19:23:52.919Z,21.38
2022-11-20T19:28:55.009Z,19.13
2022-11-20T19:34:00.183Z,20.83
2022-11-20T19:39:03.111Z,20.08
2022-11-20T19:44:10.775Z,18.92
2022-11-20T19:54:16.755Z,15.85
2022-11-20T19:59:18.745Z,17.80
2022-11-20T20:04:20.800Z,17.88
2022-11-20T20:09:23.837Z,18.92
2022-11-20T20:14:26.736Z,18.52
2022-11-20T20:19:28.821Z,18.33
2022-11-20T20:24:30.930Z,17.50
2022-11-20T20:29:32.889Z,17.23
2022-11-20T20:34:34.962Z,17.90
2022-11-20T20:39:37.038Z,16.95
2022-11-20T20:44:57.360Z,16.88
2022-11-20T20:49:59.920Z,18.73
2022-11-20T20:55:02.225Z,16.17
2022-11-20T21:00:06.450Z,19.75
2022-11-20T21:12:18.365Z,18.55
2022-11-20T21:17:22.570Z,19.67
2022-11-20T21:22:36.538Z,20.23
2022-11-20T21:27:41.436Z,20.92
2022-11-20T21:32:43.885Z,21.27
2022-11-20T21:37:46.581Z,19.35
2022-11-20T21:42:55.586Z,20.15
2022-11-20T21:47:58.509Z,20.30
2022-11-20T21:53:00.934Z,20.60
2022-11-20T21:58:02.938Z,19.80
2022-11-20T22:08:26.961Z,22.23
2022-11-20T22:13:47.826Z,20.77
2022-11-20T22:18:52.376Z,20.90
2022-11-20T22:23:55.184Z,20.15
2022-11-20T22:28:58.796Z,20.55
2022-11-20T22:34:02.430Z,20.63
2022-11-20T22:39:05.748Z,21.50
2022-11-20T22:44:11.714Z,20.48
2022-11-20T22:49:13.793Z,22.63
2022-11-20T22:54:15.898Z,20.75
2022-11-20T22:59:21.820Z,20.58
2022-11-20T23:04:24.286Z,22.02
2022-11-20T23:09:29.047Z,21.42
2022-11-20T23:14:31.167Z,22.45
2022-11-20T23:19:33.537Z,21.70
2022-11-20T23:24:36.835Z,21.15
2022-11-20T23:29:41.701Z,22.88
2022-11-20T23:34:44.682Z,22.77
2022-11-20T23:39:47.103Z,22.88
2022-11-20T23:44:52.188Z,23.15
2022-11-20T23:49:54.044Z,26.60
2022-11-20T23:55:03.942Z,24.45
